Time;durP1;ratioP1;P1;durP2;ratioP2;P2;SDS_P1;SDS_P2;PMS_P1;PMS_P2;Temp;Humidity;BMP_temperature;BMP_pressure;BME280_temperature;BME280_humidity;BME280_pressure;Samples;Min_cycle;Max_cycle;Signal;HPM_P1;HPM_P2
2020/12/28 00:02:07;;;;;;;0.97;0.67;;;5.70;99.90;;;;;;5013813;28;20196;-74
2020/12/28 00:04:33;;;;;;;1.63;0.70;;;5.60;99.90;;;;;;5013670;28;20415;-74
2020/12/28 00:06:59;;;;;;;1.33;1.00;;;5.60;99.90;;;;;;5013443;28;20904;-73
2020/12/28 00:09:24;;;;;;;1.70;1.03;;;5.60;99.90;;;;;;5013308;28;20499;-73
2020/12/28 00:11:57;;;;;;;3.33;1.50;;;5.60;99.90;;;;;;5012971;28;20489;-74
2020/12/28 00:14:23;;;;;;;1.90;1.33;;;5.40;99.90;;;;;;5013305;28;20203;-73
2020/12/28 00:16:49;;;;;;;1.17;1.00;;;5.50;99.90;;;;;;5013491;28;20936;-74
2020/12/28 00:19:16;;;;;;;1.57;0.83;;;5.40;99.90;;;;;;5012183;28;20798;-74
2020/12/28 00:21:42;;;;;;;1.10;0.87;;;5.40;99.90;;;;;;5013910;28;20513;-74
2020/12/28 00:24:08;;;;;;;1.83;1.10;;;5.40;99.90;;;;;;5031617;28;20742;-74
2020/12/28 00:26:38;;;;;;;0.97;0.70;;;5.30;99.90;;;;;;5028454;28;20434;-74
2020/12/28 00:29:05;;;;;;;3.90;1.03;;;5.30;99.90;;;;;;5013102;28;20427;-74
2020/12/28 00:31:30;;;;;;;1.50;0.90;;;5.30;99.90;;;;;;5012920;28;20478;-74
2020/12/28 00:33:56;;;;;;;1.00;0.80;;;5.30;99.90;;;;;;5010954;28;20463;-73
2020/12/28 00:36:21;;;;;;;0.80;0.60;;;5.20;99.90;;;;;;5015014;28;20210;-73
2020/12/28 00:38:47;;;;;;;0.90;0.60;;;5.10;99.90;;;;;;5011981;28;20187;-73
2020/12/28 00:41:13;;;;;;;2.53;0.70;;;5.10;99.90;;;;;;5008837;28;20181;-74
2020/12/28 00:43:43;;;;;;;0.90;0.70;;;5.10;99.90;;;;;;5008636;28;20270;-74
2020/12/28 00:46:10;;;;;;;0.80;0.60;;;5.10;99.90;;;;;;5008737;28;20180;-74
2020/12/28 00:48:35;;;;;;;1.10;1.00;;;5.10;99.90;;;;;;5027179;28;20451;-74
2020/12/28 00:51:01;;;;;;;1.00;0.57;;;5.20;99.90;;;;;;5010945;28;20524;-74
2020/12/28 00:53:29;;;;;;;3.43;1.07;;;5.20;99.90;;;;;;5008191;28;20214;-74
2020/12/28 00:55:55;;;;;;;1.20;0.67;;;5.10;99.90;;;;;;5006850;28;20439;-74
2020/12/28 00:58:21;;;;;;;0.80;0.60;;;5.10;99.90;;;;;;5007714;28;20502;-74
2020/12/28 01:00:47;;;;;;;0.80;0.60;;;5.20;99.90;;;;;;5005395;28;20431;-74
2020/12/28 01:03:13;;;;;;;0.80;0.80;;;5.10;99.90;;;;;;5012332;28;20443;-74
2020/12/28 01:05:38;;;;;;;0.80;0.60;;;5.10;99.90;;;;;;5012157;28;20481;-74
2020/12/28 01:08:04;;;;;;;1.67;0.70;;;5.10;99.90;;;;;;5011901;28;20184;-74
2020/12/28 01:10:30;;;;;;;1.20;0.70;;;5.10;99.90;;;;;;5010312;28;20195;-73
2020/12/28 01:12:55;;;;;;;0.97;0.60;;;5.20;99.90;;;;;;5012086;28;20215;-74
2020/12/28 01:15:21;;;;;;;0.70;0.60;;;5.10;99.90;;;;;;5002001;28;20245;-74
2020/12/28 01:17:47;;;;;;;0.90;0.70;;;5.20;99.90;;;;;;5006624;28;20187;-73
2020/12/28 01:20:12;;;;;;;0.90;0.60;;;5.20;99.90;;;;;;5009906;28;20187;-74
2020/12/28 01:22:38;;;;;;;0.80;0.60;;;5.10;99.90;;;;;;5010984;28;20204;-73
2020/12/28 01:25:05;;;;;;;0.90;0.70;;;5.10;99.90;;;;;;5010571;28;20546;-74
2020/12/28 01:27:30;;;;;;;0.70;0.57;;;5.10;99.90;;;;;;5014016;28;20677;-74
2020/12/28 01:29:56;;;;;;;1.43;0.73;;;5.00;99.90;;;;;;5012815;28;20445;-74
2020/12/28 01:32:22;;;;;;;2.10;0.70;;;5.00;99.90;;;;;;5011360;28;20540;-74
2020/12/28 01:34:47;;;;;;;0.83;0.57;;;5.00;99.90;;;;;;5012425;28;20176;-74
2020/12/28 01:37:13;;;;;;;1.07;0.80;;;5.10;99.90;;;;;;5011280;28;20180;-74
2020/12/28 01:39:39;;;;;;;1.00;0.70;;;5.00;99.90;;;;;;5012741;28;20180;-74
2020/12/28 01:42:06;;;;;;;0.80;0.60;;;5.00;99.90;;;;;;5013276;28;20192;-74
2020/12/28 01:44:32;;;;;;;0.90;0.60;;;5.00;99.90;;;;;;5013209;28;20445;-74
2020/12/28 01:46:58;;;;;;;0.70;0.50;;;5.10;99.90;;;;;;5011788;28;20435;-74
2020/12/28 01:49:23;;;;;;;0.90;0.77;;;5.00;99.90;;;;;;5010567;28;20168;-74
2020/12/28 01:51:49;;;;;;;0.70;0.60;;;5.10;99.90;;;;;;5016851;28;20493;-74
2020/12/28 01:54:15;;;;;;;1.00;0.60;;;5.10;99.90;;;;;;5009589;28;20208;-74
2020/12/28 01:56:41;;;;;;;1.43;1.33;;;5.10;99.90;;;;;;5010914;28;20203;-74
2020/12/28 01:59:08;;;;;;;1.00;0.60;;;5.10;99.90;;;;;;5011191;28;20180;-74
2020/12/28 02:01:41;;;;;;;1.63;0.70;;;5.00;99.90;;;;;;5010666;28;20462;-74
2020/12/28 02:04:07;;;;;;;1.93;0.80;;;5.00;99.90;;;;;;5014464;28;20506;-74
2020/12/28 02:06:33;;;;;;;0.70;0.50;;;5.10;99.90;;;;;;5011574;28;20834;-74
2020/12/28 02:08:59;;;;;;;0.70;0.60;;;5.10;99.90;;;;;;5011477;28;20445;-74
2020/12/28 02:11:26;;;;;;;0.73;0.60;;;5.10;99.90;;;;;;5009103;28;20283;-74
2020/12/28 02:13:52;;;;;;;1.20;0.60;;;5.10;99.90;;;;;;5011145;28;20200;-74
2020/12/28 02:16:18;;;;;;;0.80;0.60;;;5.10;99.90;;;;;;4999697;28;20462;-74
2020/12/28 02:18:43;;;;;;;0.80;0.70;;;5.10;99.90;;;;;;5009894;28;20181;-74
2020/12/28 02:21:09;;;;;;;0.80;0.60;;;5.10;99.90;;;;;;5010988;28;20444;-74
2020/12/28 02:23:34;;;;;;;0.80;0.60;;;5.00;99.90;;;;;;5010493;28;20211;-73
2020/12/28 02:26:00;;;;;;;0.70;0.50;;;5.00;99.90;;;;;;5010578;28;20182;-74
2020/12/28 02:28:26;;;;;;;1.00;0.60;;;5.00;99.90;;;;;;5013160;28;20263;-74
2020/12/28 02:30:52;;;;;;;1.10;0.63;;;5.00;99.90;;;;;;5013880;28;20930;-74
2020/12/28 02:33:17;;;;;;;0.80;0.70;;;5.10;99.90;;;;;;5013755;28;20204;-75
2020/12/28 02:35:43;;;;;;;0.80;0.57;;;5.10;99.90;;;;;;5015314;28;20621;-75
2020/12/28 02:38:08;;;;;;;0.80;0.50;;;5.00;99.90;;;;;;5014771;28;20266;-74
2020/12/28 02:40:34;;;;;;;0.90;0.70;;;5.00;99.90;;;;;;5013679;28;20176;-74
2020/12/28 02:42:59;;;;;;;1.17;0.60;;;5.00;99.90;;;;;;5014220;28;20196;-74
2020/12/28 02:45:25;;;;;;;1.37;0.70;;;5.10;99.90;;;;;;5014828;28;20176;-74
2020/12/28 02:47:51;;;;;;;3.00;0.70;;;5.10;99.90;;;;;;5011046;28;20199;-74
2020/12/28 02:50:16;;;;;;;0.90;0.70;;;5.10;99.90;;;;;;5015229;28;20187;-74
2020/12/28 02:52:45;;;;;;;1.27;0.63;;;5.10;99.90;;;;;;5014510;28;20211;-74
2020/12/28 02:55:11;;;;;;;1.27;0.80;;;5.20;99.90;;;;;;5013710;28;20665;-74
2020/12/28 02:57:37;;;;;;;0.80;0.60;;;5.20;99.90;;;;;;5014485;28;20578;-74
2020/12/28 03:00:04;;;;;;;0.90;0.60;;;5.20;99.90;;;;;;5014633;28;20530;-74
2020/12/28 03:02:30;;;;;;;2.03;1.37;;;5.20;99.90;;;;;;5013977;28;20459;-74
2020/12/28 03:04:56;;;;;;;1.10;0.70;;;5.40;99.90;;;;;;5013522;28;20431;-74
2020/12/28 03:07:22;;;;;;;0.90;0.70;;;5.40;99.90;;;;;;5014672;28;20216;-74
2020/12/28 03:09:47;;;;;;;1.53;0.70;;;5.50;99.90;;;;;;5013936;28;20439;-74
2020/12/28 03:12:13;;;;;;;1.50;0.97;;;5.50;99.90;;;;;;5013523;28;20199;-74
2020/12/28 03:14:39;;;;;;;1.00;0.77;;;5.60;99.90;;;;;;5013928;28;20192;-74
2020/12/28 03:17:04;;;;;;;1.10;0.60;;;5.60;99.90;;;;;;5013867;28;20561;-73
2020/12/28 03:19:31;;;;;;;1.57;0.90;;;5.70;99.90;;;;;;5012526;28;20184;-74
2020/12/28 03:21:57;;;;;;;2.53;0.60;;;5.50;99.90;;;;;;5013949;28;20192;-74
2020/12/28 03:24:23;;;;;;;0.80;0.60;;;5.50;99.90;;;;;;4996230;28;20534;-74
2020/12/28 03:26:48;;;;;;;0.80;0.70;;;5.40;99.90;;;;;;5014432;28;20506;-74
2020/12/28 03:29:14;;;;;;;1.67;1.47;;;5.40;99.90;;;;;;5016209;28;20643;-74
2020/12/28 03:31:41;;;;;;;0.80;0.57;;;5.30;99.90;;;;;;5016615;28;20282;-74
2020/12/28 03:34:06;;;;;;;0.87;0.60;;;5.30;99.90;;;;;;5013878;28;20204;-74
2020/12/28 03:36:32;;;;;;;0.80;0.70;;;5.40;99.90;;;;;;5014666;28;20481;-74
2020/12/28 03:38:58;;;;;;;1.20;0.90;;;5.30;99.90;;;;;;5013904;28;20187;-74
2020/12/28 03:41:24;;;;;;;1.10;0.70;;;5.20;99.90;;;;;;5013049;28;20549;-74
2020/12/28 03:43:49;;;;;;;0.90;0.63;;;5.20;99.90;;;;;;5013879;28;20180;-74
2020/12/28 03:46:15;;;;;;;1.20;0.70;;;5.10;99.90;;;;;;5011571;28;20670;-75
2020/12/28 03:48:40;;;;;;;1.57;0.80;;;5.10;99.90;;;;;;5013234;28;20233;-74
2020/12/28 03:51:06;;;;;;;3.73;0.83;;;5.10;99.90;;;;;;5013773;28;20188;-74
2020/12/28 03:53:31;;;;;;;1.43;0.70;;;5.10;99.90;;;;;;5013671;28;20238;-74
2020/12/28 03:55:57;;;;;;;2.03;0.80;;;5.00;99.90;;;;;;5008731;28;20184;-74
2020/12/28 03:58:23;;;;;;;2.40;1.00;;;5.00;99.90;;;;;;5006274;28;20238;-74
2020/12/28 04:00:48;;;;;;;2.30;1.00;;;5.00;99.90;;;;;;5012760;28;20180;-74
2020/12/28 04:03:14;;;;;;;1.10;0.80;;;5.10;99.90;;;;;;5028031;28;20357;-74
2020/12/28 04:05:39;;;;;;;0.70;0.50;;;5.00;99.90;;;;;;5013056;28;20180;-74
2020/12/28 04:08:06;;;;;;;1.60;1.00;;;5.00;99.90;;;;;;5012948;28;20176;-73
2020/12/28 04:10:33;;;;;;;1.87;0.90;;;5.00;99.90;;;;;;5012940;28;20176;-74
2020/12/28 04:12:59;;;;;;;1.47;0.70;;;4.80;99.90;;;;;;5007181;28;20882;-74
2020/12/28 04:15:24;;;;;;;2.50;0.67;;;4.80;99.90;;;;;;5011882;28;20431;-74
2020/12/28 04:17:50;;;;;;;0.90;0.80;;;4.80;99.90;;;;;;5013069;28;20497;-74
2020/12/28 04:20:15;;;;;;;1.10;0.60;;;4.80;99.90;;;;;;5016406;28;20177;-74
2020/12/28 04:22:41;;;;;;;1.00;0.60;;;4.70;99.90;;;;;;5017655;28;20546;-74
2020/12/28 04:25:07;;;;;;;0.70;0.50;;;4.70;99.90;;;;;;5008177;28;20200;-74
2020/12/28 04:27:32;;;;;;;0.70;0.53;;;4.60;99.90;;;;;;5014594;28;20235;-74
2020/12/28 04:29:58;;;;;;;1.00;0.70;;;4.50;99.90;;;;;;5013564;28;20183;-74
2020/12/28 04:32:24;;;;;;;0.80;0.53;;;4.50;99.90;;;;;;5015687;28;20273;-74
2020/12/28 04:34:49;;;;;;;0.77;0.60;;;4.50;99.90;;;;;;5015688;28;20176;-74
2020/12/28 04:37:15;;;;;;;0.90;0.80;;;4.60;99.90;;;;;;5015049;28;20164;-74
2020/12/28 04:39:41;;;;;;;1.10;0.50;;;4.60;99.90;;;;;;5015139;28;20668;-74
2020/12/28 04:42:06;;;;;;;1.30;0.50;;;4.60;99.90;;;;;;5014731;28;20200;-74
2020/12/28 04:44:32;;;;;;;0.90;0.63;;;4.60;99.90;;;;;;5013961;28;20176;-74
2020/12/28 04:46:58;;;;;;;1.93;0.80;;;4.70;99.90;;;;;;5015392;28;20550;-74
2020/12/28 04:49:23;;;;;;;0.80;0.60;;;4.60;99.90;;;;;;5009331;28;20481;-74
2020/12/28 04:51:53;;;;;;;0.80;0.63;;;4.60;99.90;;;;;;5014696;28;20188;-74
2020/12/28 04:54:19;;;;;;;1.00;0.83;;;4.60;99.90;;;;;;5014009;28;20867;-74
2020/12/28 04:56:44;;;;;;;1.50;0.70;;;4.70;99.90;;;;;;5014501;28;20493;-74
2020/12/28 04:59:10;;;;;;;1.10;0.97;;;4.80;99.90;;;;;;5014837;28;20180;-74
2020/12/28 05:01:36;;;;;;;0.90;0.73;;;4.90;99.90;;;;;;5029687;28;20188;-74
2020/12/28 05:04:01;;;;;;;1.10;0.87;;;4.90;99.90;;;;;;5015356;28;20204;-74
2020/12/28 05:06:27;;;;;;;1.43;0.77;;;4.90;99.90;;;;;;5008143;28;20191;-74
2020/12/28 05:08:54;;;;;;;1.40;0.87;;;4.90;99.90;;;;;;5014913;28;20251;-74
2020/12/28 05:11:20;;;;;;;1.17;1.07;;;4.80;99.90;;;;;;5014236;28;20291;-74
2020/12/28 05:13:49;;;;;;;1.30;0.67;;;4.90;99.90;;;;;;5012159;28;21117;-74
2020/12/28 05:16:15;;;;;;;1.00;0.67;;;4.80;99.90;;;;;;5014423;28;20176;-74
2020/12/28 05:18:41;;;;;;;1.07;0.60;;;4.80;99.90;;;;;;5014506;28;20427;-74
2020/12/28 05:21:07;;;;;;;0.90;0.60;;;4.80;99.90;;;;;;5014315;28;20502;-74
2020/12/28 05:23:33;;;;;;;1.10;0.70;;;4.80;99.90;;;;;;5013114;28;20446;-74
2020/12/28 05:25:58;;;;;;;1.10;1.00;;;4.70;99.90;;;;;;5028253;28;20179;-74
2020/12/28 05:28:28;;;;;;;0.90;0.70;;;4.70;99.90;;;;;;5012330;28;20430;-74
2020/12/28 05:30:59;;;;;;;0.90;0.73;;;4.60;99.90;;;;;;5013424;28;20182;-74
2020/12/28 05:33:34;;;;;;;0.80;0.60;;;4.60;99.90;;;;;;5014042;28;20451;-74
2020/12/28 05:36:00;;;;;;;1.23;0.60;;;4.60;99.90;;;;;;5013944;28;20749;-75
2020/12/28 05:38:27;;;;;;;1.17;0.80;;;4.60;99.90;;;;;;5013966;28;20435;-74
2020/12/28 05:41:02;;;;;;;0.90;0.70;;;4.50;99.90;;;;;;5013702;28;20434;-74
2020/12/28 05:43:29;;;;;;;1.13;0.70;;;4.50;99.90;;;;;;5028709;28;20434;-74
2020/12/28 05:45:55;;;;;;;1.37;0.70;;;4.50;99.90;;;;;;5010201;28;20431;-74
2020/12/28 05:48:23;;;;;;;0.80;0.60;;;4.40;99.90;;;;;;5015130;28;20470;-74
2020/12/28 05:50:57;;;;;;;1.33;0.83;;;4.40;99.90;;;;;;5014818;28;20176;-74
2020/12/28 05:53:25;;;;;;;1.77;0.60;;;4.40;99.90;;;;;;5010180;28;20497;-74
2020/12/28 05:55:51;;;;;;;1.80;0.80;;;4.30;99.90;;;;;;5013451;28;20438;-74
2020/12/28 05:58:19;;;;;;;1.00;0.77;;;4.30;99.90;;;;;;5012766;28;20430;-74
2020/12/28 06:00:48;;;;;;;1.47;1.07;;;4.30;99.90;;;;;;5012931;28;20461;-74
2020/12/28 06:03:26;;;;;;;0.80;0.70;;;4.30;99.90;;;;;;5011260;28;20454;-74
2020/12/28 06:05:53;;;;;;;0.90;0.70;;;4.20;99.90;;;;;;5017829;28;20946;-74
2020/12/28 06:08:19;;;;;;;1.00;0.70;;;4.20;99.90;;;;;;5016273;28;20489;-74
2020/12/28 06:10:45;;;;;;;2.90;0.70;;;4.20;99.90;;;;;;5017831;28;20488;-74
2020/12/28 06:13:20;;;;;;;2.13;0.60;;;4.20;99.90;;;;;;5015905;28;20462;-74
2020/12/28 06:16:02;;;;;;;0.83;0.70;;;4.30;99.90;;;;;;5017253;28;20171;-73
2020/12/28 06:18:28;;;;;;;1.60;1.00;;;4.20;99.90;;;;;;5016682;28;20512;-73
2020/12/28 06:20:54;;;;;;;1.90;0.87;;;4.10;99.90;;;;;;5018170;28;20534;-74
2020/12/28 06:23:27;;;;;;;1.30;0.90;;;4.00;99.90;;;;;;5017310;28;20354;-74
2020/12/28 06:25:54;;;;;;;1.93;0.80;;;4.00;99.90;;;;;;5017368;28;20218;-74
2020/12/28 06:28:26;;;;;;;1.20;1.00;;;3.90;99.90;;;;;;5012019;28;20430;-74
2020/12/28 06:30:53;;;;;;;1.73;0.80;;;3.90;99.90;;;;;;5017573;28;20430;-74
2020/12/28 06:33:19;;;;;;;1.73;0.70;;;3.90;99.90;;;;;;5015759;28;20843;-74
2020/12/28 06:35:45;;;;;;;1.33;0.80;;;3.90;99.90;;;;;;5013372;28;20441;-74
2020/12/28 06:38:10;;;;;;;2.60;0.60;;;3.90;99.90;;;;;;5013507;28;20183;-74
2020/12/28 06:40:40;;;;;;;2.53;1.23;;;3.90;99.90;;;;;;5016757;28;20493;-74
2020/12/28 06:43:08;;;;;;;0.90;0.70;;;3.90;99.90;;;;;;5016131;28;20196;-73
2020/12/28 06:45:33;;;;;;;1.07;0.70;;;3.90;99.90;;;;;;5015499;28;20443;-74
2020/12/28 06:47:59;;;;;;;0.77;0.60;;;3.90;99.90;;;;;;5016266;28;20450;-74
2020/12/28 06:50:24;;;;;;;0.80;0.60;;;3.90;99.90;;;;;;5015843;28;20237;-74
2020/12/28 06:52:53;;;;;;;1.20;0.80;;;3.90;99.90;;;;;;5016982;28;20206;-74
2020/12/28 06:55:22;;;;;;;1.63;1.00;;;3.80;99.90;;;;;;5017249;28;20649;-74
2020/12/28 06:57:48;;;;;;;1.00;0.83;;;3.80;99.90;;;;;;5012265;28;20434;-74
2020/12/28 07:00:22;;;;;;;1.20;0.90;;;3.70;99.90;;;;;;5016334;28;20944;-74
2020/12/28 07:02:53;;;;;;;1.30;0.80;;;3.70;99.90;;;;;;5015507;28;20301;-74
2020/12/28 07:05:28;;;;;;;1.00;0.90;;;3.80;99.90;;;;;;5015116;28;20434;-74
2020/12/28 07:07:54;;;;;;;1.40;0.90;;;3.80;99.90;;;;;;5013029;28;20968;-74
2020/12/28 07:10:24;;;;;;;3.27;1.20;;;3.80;99.90;;;;;;5011927;28;20472;-74
2020/12/28 07:12:51;;;;;;;3.63;1.10;;;3.80;99.90;;;;;;5016456;28;20505;-74
2020/12/28 07:15:19;;;;;;;1.30;0.90;;;3.90;99.90;;;;;;5016484;28;20427;-74
2020/12/28 07:17:45;;;;;;;1.60;1.27;;;3.90;99.90;;;;;;5012011;28;20534;-74
2020/12/28 07:20:13;;;;;;;1.73;1.00;;;3.90;99.90;;;;;;5022820;28;20423;-74
2020/12/28 07:22:43;;;;;;;3.20;1.30;;;3.90;99.90;;;;;;5015841;28;20963;-74
2020/12/28 07:25:11;;;;;;;1.97;1.20;;;3.80;99.90;;;;;;5017218;28;20773;-74
2020/12/28 07:27:41;;;;;;;2.97;1.00;;;3.90;99.90;;;;;;5017191;28;20455;-74
2020/12/28 07:30:12;;;;;;;4.93;1.73;;;3.90;99.90;;;;;;5016512;28;20465;-73
2020/12/28 07:32:38;;;;;;;1.83;1.10;;;3.70;99.90;;;;;;5015806;28;20987;-74
2020/12/28 07:35:05;;;;;;;2.10;1.23;;;3.60;99.90;;;;;;5016343;28;20562;-74
2020/12/28 07:37:31;;;;;;;1.33;1.23;;;3.60;99.90;;;;;;5011429;28;20432;-73
2020/12/28 07:39:57;;;;;;;1.70;1.33;;;3.50;99.90;;;;;;5013558;28;20427;-73
2020/12/28 07:42:24;;;;;;;1.20;1.10;;;3.40;99.90;;;;;;5016847;28;21086;-73
2020/12/28 07:44:58;;;;;;;2.47;1.87;;;3.30;99.90;;;;;;5015823;28;20959;-73
2020/12/28 07:47:52;;;;;;;1.93;1.30;;;3.20;99.90;;;;;;5016074;28;20430;-73
2020/12/28 07:50:19;;;;;;;2.13;1.40;;;3.20;99.90;;;;;;5015542;28;20974;-73
2020/12/28 07:53:14;;;;;;;1.77;1.00;;;3.20;99.90;;;;;;5015535;28;20458;-73
2020/12/28 07:55:48;;;;;;;3.20;1.67;;;3.10;99.90;;;;;;5015741;28;20426;-73
2020/12/28 07:58:41;;;;;;;2.37;1.50;;;3.00;99.90;;;;;;5016312;28;20435;-73
2020/12/28 08:01:20;;;;;;;1.90;1.10;;;3.10;99.90;;;;;;5009273;28;20435;-73
2020/12/28 08:03:49;;;;;;;1.10;0.90;;;3.10;99.90;;;;;;5015420;28;20430;-73
2020/12/28 08:06:16;;;;;;;1.20;1.10;;;3.10;99.90;;;;;;5014376;28;20478;-73
2020/12/28 08:08:42;;;;;;;1.63;1.17;;;3.10;99.90;;;;;;5012738;28;20431;-73
2020/12/28 08:11:08;;;;;;;2.33;1.43;;;3.10;99.90;;;;;;5015214;28;20427;-73
2020/12/28 08:13:35;;;;;;;1.83;1.23;;;3.10;99.90;;;;;;5016304;28;20490;-73
2020/12/28 08:16:11;;;;;;;1.93;1.70;;;3.00;99.90;;;;;;5015453;28;20426;-73
2020/12/28 08:19:03;;;;;;;1.97;1.43;;;3.00;99.90;;;;;;5005185;28;20439;-73
2020/12/28 08:21:41;;;;;;;3.00;1.50;;;3.20;99.90;;;;;;5001659;28;20497;-73
2020/12/28 08:24:16;;;;;;;2.03;1.13;;;3.40;99.90;;;;;;5030161;28;20441;-73
2020/12/28 08:26:43;;;;;;;1.80;1.53;;;3.80;99.90;;;;;;5014250;28;20434;-74
2020/12/28 08:29:09;;;;;;;1.30;1.20;;;4.10;99.90;;;;;;5006798;28;21043;-73
2020/12/28 08:31:35;;;;;;;1.50;1.10;;;4.70;99.90;;;;;;5013863;28;20447;-73
2020/12/28 08:34:05;;;;;;;1.97;1.20;;;5.40;99.90;;;;;;5015171;28;20489;-74
2020/12/28 08:36:32;;;;;;;1.57;1.47;;;6.30;99.90;;;;;;5014745;28;20831;-74
2020/12/28 08:38:58;;;;;;;1.50;1.30;;;7.20;99.90;;;;;;5015407;28;20787;-74
2020/12/28 08:41:24;;;;;;;7.00;1.57;;;7.50;99.90;;;;;;5014610;28;20451;-74
2020/12/28 08:43:49;;;;;;;1.83;1.30;;;7.70;99.90;;;;;;5014785;28;20797;-73
2020/12/28 08:46:22;;;;;;;2.23;1.57;;;7.80;99.90;;;;;;5014745;28;20724;-74
2020/12/28 08:48:54;;;;;;;3.17;1.57;;;8.10;99.90;;;;;;5070989;28;20538;-73
2020/12/28 08:51:20;;;;;;;2.70;1.40;;;7.60;99.90;;;;;;5070109;28;20448;-72
2020/12/28 08:53:49;;;;;;;2.23;1.33;;;6.90;99.90;;;;;;5069644;28;20178;-72
2020/12/28 08:56:16;;;;;;;5.67;2.50;;;6.40;99.90;;;;;;5053098;28;20440;-72
2020/12/28 08:58:42;;;;;;;3.00;1.73;;;6.00;99.90;;;;;;5051377;28;20421;-72
2020/12/28 09:01:08;;;;;;;5.37;2.07;;;5.50;99.90;;;;;;5050702;28;20816;-72
2020/12/28 09:03:37;;;;;;;3.17;1.37;;;5.40;99.90;;;;;;5062688;28;20486;-72
2020/12/28 09:06:07;;;;;;;3.30;1.60;;;5.30;99.90;;;;;;5068775;28;20166;-72
2020/12/28 09:08:33;;;;;;;2.10;1.43;;;5.50;99.90;;;;;;5070355;28;20525;-72
2020/12/28 09:10:59;;;;;;;3.97;1.77;;;5.50;99.90;;;;;;5063922;28;20504;-73
2020/12/28 09:13:25;;;;;;;5.10;1.63;;;5.50;99.90;;;;;;5051217;28;20492;-72
2020/12/28 09:15:51;;;;;;;4.63;1.20;;;5.40;99.90;;;;;;5065806;28;20167;-73
2020/12/28 09:18:17;;;;;;;1.57;1.30;;;6.00;99.90;;;;;;5069742;28;20511;-73
2020/12/28 09:20:42;;;;;;;2.60;1.63;;;7.00;99.90;;;;;;5060202;28;20217;-72
2020/12/28 09:23:08;;;;;;;1.30;1.20;;;7.20;99.90;;;;;;5064880;28;20242;-72
2020/12/28 09:25:34;;;;;;;1.30;0.90;;;7.00;99.90;;;;;;5069842;28;20530;-72
2020/12/28 09:28:00;;;;;;;1.93;1.20;;;7.40;99.90;;;;;;5053499;28;20457;-73
2020/12/28 09:30:26;;;;;;;3.40;1.20;;;7.10;99.90;;;;;;5049786;28;20942;-72
2020/12/28 09:32:51;;;;;;;3.27;1.10;;;7.20;99.90;;;;;;5061557;28;20194;-73
2020/12/28 09:35:18;;;;;;;2.20;0.93;;;7.00;99.90;;;;;;5070436;28;20644;-73
2020/12/28 09:37:43;;;;;;;1.10;1.00;;;6.70;99.90;;;;;;5069925;28;20189;-73
2020/12/28 09:40:09;;;;;;;3.13;1.60;;;6.40;99.90;;;;;;5052634;28;20426;-72
2020/12/28 09:42:35;;;;;;;1.73;1.50;;;6.10;99.90;;;;;;5064937;28;20190;-72
2020/12/28 09:45:00;;;;;;;3.93;1.30;;;5.70;99.90;;;;;;5048934;28;20470;-73
2020/12/28 09:47:26;;;;;;;3.40;1.60;;;5.50;99.90;;;;;;5050647;28;20281;-72
2020/12/28 09:49:52;;;;;;;3.30;1.57;;;5.50;99.90;;;;;;5050793;28;20171;-72
2020/12/28 09:52:17;;;;;;;1.63;1.33;;;5.30;99.90;;;;;;5050115;28;20194;-72
2020/12/28 09:54:43;;;;;;;5.63;1.90;;;5.10;99.90;;;;;;5049848;28;20301;-72
2020/12/28 09:57:09;;;;;;;1.60;1.50;;;4.90;99.90;;;;;;5067287;28;20175;-72
2020/12/28 09:59:38;;;;;;;2.80;1.80;;;4.70;99.90;;;;;;5059519;28;20182;-72
2020/12/28 10:02:05;;;;;;;1.37;1.27;;;4.40;99.90;;;;;;5055475;28;20226;-72
2020/12/28 10:04:31;;;;;;;1.57;1.47;;;4.40;99.90;;;;;;5037264;28;20426;-72
2020/12/28 10:06:57;;;;;;;1.77;1.67;;;4.40;99.90;;;;;;5036430;28;20446;-72
2020/12/28 10:09:23;;;;;;;2.50;1.73;;;4.40;99.90;;;;;;5049526;28;20436;-72
2020/12/28 10:11:48;;;;;;;5.03;1.70;;;4.40;99.90;;;;;;5054647;28;20430;-72
2020/12/28 10:14:15;;;;;;;2.50;2.07;;;4.60;99.90;;;;;;5055951;28;20524;-72
2020/12/28 10:16:41;;;;;;;2.07;1.67;;;4.80;99.90;;;;;;5056020;28;20163;-72
2020/12/28 10:19:07;;;;;;;2.50;2.10;;;4.80;99.90;;;;;;5056261;28;20402;-72
2020/12/28 10:21:33;;;;;;;2.17;1.97;;;4.70;99.90;;;;;;5053849;28;20487;-72
2020/12/28 10:23:58;;;;;;;1.97;1.87;;;4.60;99.90;;;;;;5059953;28;20194;-72
2020/12/28 10:26:26;;;;;;;2.17;1.87;;;4.70;99.90;;;;;;5057624;28;20197;-73
2020/12/28 10:28:52;;;;;;;5.00;2.60;;;4.70;99.90;;;;;;5057421;28;20194;-72
2020/12/28 10:31:20;;;;;;;4.23;2.57;;;4.80;99.90;;;;;;5058060;28;20440;-72
2020/12/28 10:33:47;;;;;;;8.77;2.57;;;4.80;99.90;;;;;;5056511;28;20455;-73
2020/12/28 10:36:18;;;;;;;3.93;2.33;;;4.90;99.90;;;;;;5054068;28;20427;-73
2020/12/28 10:38:45;;;;;;;2.90;2.20;;;4.90;99.90;;;;;;5035940;28;20422;-72
2020/12/28 10:41:11;;;;;;;5.97;3.53;;;4.80;99.90;;;;;;5033584;28;20426;-72
2020/12/28 10:43:37;;;;;;;3.77;2.40;;;4.80;99.90;;;;;;5034148;28;20402;-73
2020/12/28 10:46:06;;;;;;;3.70;2.67;;;4.80;99.90;;;;;;5033995;28;20629;-72
2020/12/28 10:48:31;;;;;;;2.70;2.50;;;4.80;99.90;;;;;;5033810;28;20200;-72
2020/12/28 10:50:57;;;;;;;5.20;2.47;;;4.90;99.90;;;;;;5036973;28;21044;-73
2020/12/28 10:53:22;;;;;;;2.27;2.00;;;4.90;99.90;;;;;;5053783;28;20271;-72
2020/12/28 10:55:48;;;;;;;3.50;1.67;;;5.00;99.90;;;;;;5053829;28;20159;-72
2020/12/28 10:58:14;;;;;;;2.87;2.00;;;4.90;99.90;;;;;;5053724;28;20171;-72
2020/12/28 11:00:41;;;;;;;5.50;1.70;;;4.90;99.90;;;;;;5053471;28;20162;-72
2020/12/28 11:03:06;;;;;;;2.50;1.63;;;5.00;99.90;;;;;;5053489;28;20201;-72
2020/12/28 11:05:32;;;;;;;1.77;1.60;;;5.00;99.90;;;;;;5051314;28;20397;-72
2020/12/28 11:07:58;;;;;;;2.70;1.50;;;5.00;99.90;;;;;;5033581;28;20195;-72
2020/12/28 11:10:23;;;;;;;1.30;1.20;;;5.10;99.90;;;;;;5032303;28;20171;-72
2020/12/28 11:12:49;;;;;;;3.80;1.47;;;5.10;99.90;;;;;;5033478;28;20214;-72
2020/12/28 11:15:15;;;;;;;2.50;1.53;;;5.20;99.90;;;;;;5045231;28;20167;-72
2020/12/28 11:17:40;;;;;;;3.77;1.47;;;5.30;99.90;;;;;;5053554;28;20171;-72
2020/12/28 11:20:06;;;;;;;3.30;1.43;;;5.50;99.90;;;;;;5045126;28;20179;-72
2020/12/28 11:22:32;;;;;;;2.90;1.60;;;5.60;99.90;;;;;;5033311;28;20282;-72
2020/12/28 11:24:58;;;;;;;3.00;1.30;;;5.70;99.90;;;;;;5033670;28;20406;-72
2020/12/28 11:27:23;;;;;;;2.20;1.33;;;5.80;99.90;;;;;;5033405;28;20190;-72
2020/12/28 11:29:49;;;;;;;1.87;1.43;;;5.90;99.90;;;;;;5033611;28;20171;-72
2020/12/28 11:32:14;;;;;;;3.57;1.20;;;6.00;99.90;;;;;;5033044;28;20194;-72
2020/12/28 11:34:40;;;;;;;2.33;1.40;;;6.10;99.90;;;;;;5033230;28;20251;-72
2020/12/28 11:37:06;;;;;;;2.17;1.30;;;6.30;99.90;;;;;;5039061;28;20179;-72
2020/12/28 11:39:32;;;;;;;2.23;1.27;;;6.50;99.90;;;;;;5033302;28;20167;-72
2020/12/28 11:41:57;;;;;;;1.57;1.47;;;6.50;99.90;;;;;;5032983;28;20489;-72
2020/12/28 11:44:23;;;;;;;2.43;1.63;;;6.40;99.90;;;;;;5033283;28;20255;-72
2020/12/28 11:46:54;;;;;;;1.50;1.10;;;6.50;99.90;;;;;;5050989;28;20179;-72
2020/12/28 11:49:19;;;;;;;2.50;1.23;;;6.30;99.90;;;;;;5052141;28;20236;-72
2020/12/28 11:51:45;;;;;;;2.40;0.90;;;6.30;99.90;;;;;;5051532;28;20934;-72
2020/12/28 11:54:10;;;;;;;1.77;1.17;;;6.10;99.90;;;;;;5054491;28;20163;-72
2020/12/28 11:56:36;;;;;;;1.73;1.07;;;6.20;99.90;;;;;;5044523;28;20175;-72
2020/12/28 11:59:03;;;;;;;4.03;1.20;;;6.20;99.90;;;;;;5035553;28;20290;-73
2020/12/28 12:01:29;;;;;;;2.00;1.60;;;6.40;99.90;;;;;;5035193;28;21120;-72
2020/12/28 12:03:54;;;;;;;2.40;1.40;;;6.50;99.90;;;;;;5035602;28;20540;-73
2020/12/28 12:06:21;;;;;;;5.77;2.57;;;6.60;99.90;;;;;;5045442;28;20441;-72
2020/12/28 12:11:32;;;;;;;3.43;1.53;;;6.60;99.90;;;;;;5052304;28;20813;-72
2020/12/28 12:13:58;;;;;;;1.80;1.40;;;6.60;99.90;;;;;;5032627;28;20402;-72
2020/12/28 12:16:25;;;;;;;1.90;1.70;;;6.60;99.90;;;;;;5039104;28;20425;-72
2020/12/28 12:18:51;;;;;;;1.70;1.30;;;6.50;99.90;;;;;;5052278;28;20169;-72
2020/12/28 12:21:16;;;;;;;6.40;1.70;;;6.50;99.90;;;;;;5049936;28;20430;-72
2020/12/28 12:23:42;;;;;;;3.87;1.70;;;6.40;99.90;;;;;;5032493;28;20791;-72
2020/12/28 12:26:08;;;;;;;2.37;2.00;;;6.50;99.90;;;;;;5042689;28;20619;-72
2020/12/28 12:28:34;;;;;;;2.03;1.87;;;6.50;99.90;;;;;;5052214;28;20814;-72
2020/12/28 12:31:00;;;;;;;2.70;1.80;;;6.50;99.90;;;;;;5051942;28;20406;-72
2020/12/28 12:33:25;;;;;;;4.00;1.87;;;6.30;99.90;;;;;;5047481;28;20164;-72
2020/12/28 12:35:51;;;;;;;3.00;1.80;;;6.40;99.90;;;;;;5042871;28;20632;-72
2020/12/28 12:38:17;;;;;;;2.90;2.10;;;6.40;99.90;;;;;;5038487;28;20182;-72
2020/12/28 12:40:42;;;;;;;2.40;1.90;;;6.40;99.90;;;;;;5040801;28;20171;-72
2020/12/28 12:43:08;;;;;;;4.47;2.00;;;6.30;99.90;;;;;;5040724;28;20188;-72
2020/12/28 12:45:34;;;;;;;2.70;2.33;;;6.30;99.90;;;;;;5039495;28;20564;-72
2020/12/28 12:47:59;;;;;;;3.03;2.10;;;6.20;99.90;;;;;;5041549;28;20572;-72
2020/12/28 12:50:25;;;;;;;1.70;1.50;;;6.20;99.90;;;;;;5039959;28;20170;-72
2020/12/28 12:52:50;;;;;;;2.07;1.87;;;6.10;99.90;;;;;;5040281;28;20187;-72
2020/12/28 12:55:16;;;;;;;2.27;1.63;;;6.10;99.90;;;;;;5040330;28;20178;-72
2020/12/28 12:57:42;;;;;;;2.60;2.10;;;6.00;99.90;;;;;;5039917;28;20649;-72
2020/12/28 13:00:07;;;;;;;1.80;1.70;;;6.00;99.90;;;;;;5041091;28;20619;-72